sensor_id;sensor_type;location;lat;lon;timestamp;P1;durP1;ratioP1;P2;durP2;ratioP2
24859;SDS011;12936;52.006;4.350;2023-02-18T00:00:36;30.67;;;13.53;;
24859;SDS011;12936;52.006;4.350;2023-02-18T00:03:04;26.27;;;13.90;;
24859;SDS011;12936;52.006;4.350;2023-02-18T00:05:32;27.63;;;14.77;;
24859;SDS011;12936;52.006;4.350;2023-02-18T00:08:03;24.07;;;13.87;;
24859;SDS011;12936;52.006;4.350;2023-02-18T00:10:35;35.37;;;15.07;;
24859;SDS011;12936;52.006;4.350;2023-02-18T00:13:11;29.73;;;15.33;;
24859;SDS011;12936;52.006;4.350;2023-02-18T00:15:59;34.53;;;15.03;;
24859;SDS011;12936;52.006;4.350;2023-02-18T00:18:28;36.60;;;15.33;;
24859;SDS011;12936;52.006;4.350;2023-02-18T00:20:57;31.93;;;16.60;;
24859;SDS011;12936;52.006;4.350;2023-02-18T00:23:25;30.07;;;16.50;;
24859;SDS011;12936;52.006;4.350;2023-02-18T00:25:59;32.07;;;16.30;;
24859;SDS011;12936;52.006;4.350;2023-02-18T00:28:28;35.83;;;16.63;;
24859;SDS011;12936;52.006;4.350;2023-02-18T00:30:58;30.03;;;16.73;;
24859;SDS011;12936;52.006;4.350;2023-02-18T00:33:26;34.50;;;16.73;;
24859;SDS011;12936;52.006;4.350;2023-02-18T00:35:59;30.63;;;16.37;;
24859;SDS011;12936;52.006;4.350;2023-02-18T00:38:31;34.43;;;16.73;;
24859;SDS011;12936;52.006;4.350;2023-02-18T00:41:02;29.30;;;17.00;;
24859;SDS011;12936;52.006;4.350;2023-02-18T00:43:33;29.20;;;16.57;;
24859;SDS011;12936;52.006;4.350;2023-02-18T00:46:21;36.20;;;17.07;;
24859;SDS011;12936;52.006;4.350;2023-02-18T00:49:10;29.67;;;17.00;;
24859;SDS011;12936;52.006;4.350;2023-02-18T00:51:39;29.77;;;17.23;;
24859;SDS011;12936;52.006;4.350;2023-02-18T00:54:08;34.20;;;17.27;;
24859;SDS011;12936;52.006;4.350;2023-02-18T00:56:43;34.93;;;17.30;;
24859;SDS011;12936;52.006;4.350;2023-02-18T00:59:12;31.50;;;17.00;;
24859;SDS011;12936;52.006;4.350;2023-02-18T01:01:41;31.77;;;17.27;;
24859;SDS011;12936;52.006;4.350;2023-02-18T01:04:09;30.27;;;15.90;;
24859;SDS011;12936;52.006;4.350;2023-02-18T01:06:38;28.70;;;14.60;;
24859;SDS011;12936;52.006;4.350;2023-02-18T01:09:08;27.20;;;13.77;;
24859;SDS011;12936;52.006;4.350;2023-02-18T01:11:37;27.77;;;15.03;;
24859;SDS011;12936;52.006;4.350;2023-02-18T01:14:14;29.47;;;14.70;;
24859;SDS011;12936;52.006;4.350;2023-02-18T01:16:42;29.97;;;14.80;;
24859;SDS011;12936;52.006;4.350;2023-02-18T01:19:11;26.93;;;13.87;;
24859;SDS011;12936;52.006;4.350;2023-02-18T01:21:39;26.17;;;14.60;;
24859;SDS011;12936;52.006;4.350;2023-02-18T01:24:08;27.60;;;13.97;;
24859;SDS011;12936;52.006;4.350;2023-02-18T01:26:38;25.03;;;13.73;;
24859;SDS011;12936;52.006;4.350;2023-02-18T01:29:10;30.93;;;15.60;;
24859;SDS011;12936;52.006;4.350;2023-02-18T01:31:42;27.17;;;14.50;;
24859;SDS011;12936;52.006;4.350;2023-02-18T01:34:11;25.07;;;14.13;;
24859;SDS011;12936;52.006;4.350;2023-02-18T01:36:38;27.03;;;14.80;;
24859;SDS011;12936;52.006;4.350;2023-02-18T01:39:07;27.67;;;14.33;;
24859;SDS011;12936;52.006;4.350;2023-02-18T01:41:56;29.97;;;14.97;;
24859;SDS011;12936;52.006;4.350;2023-02-18T01:44:26;26.10;;;15.20;;
24859;SDS011;12936;52.006;4.350;2023-02-18T01:46:56;29.50;;;15.70;;
24859;SDS011;12936;52.006;4.350;2023-02-18T01:49:26;28.67;;;14.20;;
24859;SDS011;12936;52.006;4.350;2023-02-18T01:52:40;28.43;;;15.20;;
24859;SDS011;12936;52.006;4.350;2023-02-18T01:55:08;33.37;;;15.23;;
24859;SDS011;12936;52.006;4.350;2023-02-18T01:57:37;29.40;;;14.73;;
24859;SDS011;12936;52.006;4.350;2023-02-18T02:00:27;32.37;;;16.60;;
24859;SDS011;12936;52.006;4.350;2023-02-18T02:02:59;28.43;;;14.47;;
24859;SDS011;12936;52.006;4.350;2023-02-18T02:05:29;27.67;;;14.47;;
24859;SDS011;12936;52.006;4.350;2023-02-18T02:07:58;28.13;;;13.13;;
24859;SDS011;12936;52.006;4.350;2023-02-18T02:10:33;24.60;;;13.87;;
24859;SDS011;12936;52.006;4.350;2023-02-18T02:13:12;27.17;;;13.70;;
24859;SDS011;12936;52.006;4.350;2023-02-18T02:15:50;29.77;;;14.67;;
24859;SDS011;12936;52.006;4.350;2023-02-18T02:18:40;29.17;;;15.43;;
24859;SDS011;12936;52.006;4.350;2023-02-18T02:21:35;25.77;;;13.50;;
24859;SDS011;12936;52.006;4.350;2023-02-18T02:24:45;25.93;;;14.40;;
24859;SDS011;12936;52.006;4.350;2023-02-18T02:27:28;27.37;;;14.43;;
24859;SDS011;12936;52.006;4.350;2023-02-18T02:30:34;27.17;;;14.23;;
24859;SDS011;12936;52.006;4.350;2023-02-18T02:36:13;30.33;;;15.50;;
24859;SDS011;12936;52.006;4.350;2023-02-18T02:38:49;24.03;;;12.83;;
24859;SDS011;12936;52.006;4.350;2023-02-18T02:41:29;23.80;;;13.70;;
24859;SDS011;12936;52.006;4.350;2023-02-18T02:44:10;22.30;;;12.63;;
24859;SDS011;12936;52.006;4.350;2023-02-18T02:46:46;18.53;;;10.90;;
24859;SDS011;12936;52.006;4.350;2023-02-18T02:49:23;18.90;;;11.27;;
24859;SDS011;12936;52.006;4.350;2023-02-18T02:52:06;18.77;;;11.27;;
24859;SDS011;12936;52.006;4.350;2023-02-18T02:54:40;16.33;;;9.70;;
24859;SDS011;12936;52.006;4.350;2023-02-18T03:00:09;16.73;;;9.80;;
24859;SDS011;12936;52.006;4.350;2023-02-18T03:02:43;17.53;;;10.10;;
24859;SDS011;12936;52.006;4.350;2023-02-18T03:05:26;19.50;;;8.93;;
24859;SDS011;12936;52.006;4.350;2023-02-18T03:08:05;17.53;;;8.37;;
24859;SDS011;12936;52.006;4.350;2023-02-18T03:10:47;17.60;;;10.00;;
24859;SDS011;12936;52.006;4.350;2023-02-18T03:13:25;20.67;;;10.77;;
24859;SDS011;12936;52.006;4.350;2023-02-18T03:16:05;22.70;;;10.40;;
24859;SDS011;12936;52.006;4.350;2023-02-18T03:18:42;22.80;;;9.90;;
24859;SDS011;12936;52.006;4.350;2023-02-18T03:21:18;23.73;;;11.27;;
24859;SDS011;12936;52.006;4.350;2023-02-18T03:23:52;18.40;;;9.63;;
24859;SDS011;12936;52.006;4.350;2023-02-18T03:26:22;18.90;;;9.83;;
24859;SDS011;12936;52.006;4.350;2023-02-18T03:28:55;16.93;;;9.43;;
24859;SDS011;12936;52.006;4.350;2023-02-18T03:31:26;17.07;;;7.43;;
24859;SDS011;12936;52.006;4.350;2023-02-18T03:33:58;13.80;;;7.47;;
24859;SDS011;12936;52.006;4.350;2023-02-18T03:36:33;12.47;;;6.40;;
24859;SDS011;12936;52.006;4.350;2023-02-18T03:39:03;16.03;;;6.80;;
24859;SDS011;12936;52.006;4.350;2023-02-18T03:41:52;10.50;;;6.20;;
24859;SDS011;12936;52.006;4.350;2023-02-18T03:44:20;10.87;;;6.60;;
24859;SDS011;12936;52.006;4.350;2023-02-18T03:46:51;16.07;;;6.87;;
24859;SDS011;12936;52.006;4.350;2023-02-18T03:49:20;11.87;;;6.97;;
24859;SDS011;12936;52.006;4.350;2023-02-18T03:52:28;12.63;;;6.33;;
24859;SDS011;12936;52.006;4.350;2023-02-18T03:54:57;11.40;;;6.00;;
24859;SDS011;12936;52.006;4.350;2023-02-18T03:57:26;14.33;;;7.47;;
24859;SDS011;12936;52.006;4.350;2023-02-18T03:59:54;15.20;;;8.83;;
24859;SDS011;12936;52.006;4.350;2023-02-18T04:02:22;13.67;;;7.40;;
24859;SDS011;12936;52.006;4.350;2023-02-18T04:04:50;16.53;;;8.07;;
24859;SDS011;12936;52.006;4.350;2023-02-18T04:07:18;16.63;;;8.50;;
24859;SDS011;12936;52.006;4.350;2023-02-18T04:09:47;17.13;;;8.90;;
24859;SDS011;12936;52.006;4.350;2023-02-18T04:12:16;15.37;;;6.63;;
24859;SDS011;12936;52.006;4.350;2023-02-18T04:14:45;20.40;;;8.97;;
24859;SDS011;12936;52.006;4.350;2023-02-18T04:17:13;18.97;;;8.20;;
24859;SDS011;12936;52.006;4.350;2023-02-18T04:19:41;15.47;;;6.37;;
24859;SDS011;12936;52.006;4.350;2023-02-18T04:22:31;20.43;;;8.67;;
24859;SDS011;12936;52.006;4.350;2023-02-18T04:25:20;15.47;;;7.23;;
24859;SDS011;12936;52.006;4.350;2023-02-18T04:27:50;19.83;;;8.27;;
24859;SDS011;12936;52.006;4.350;2023-02-18T04:30:18;19.20;;;8.23;;
24859;SDS011;12936;52.006;4.350;2023-02-18T04:32:47;14.53;;;7.43;;
24859;SDS011;12936;52.006;4.350;2023-02-18T04:35:16;16.37;;;9.27;;
24859;SDS011;12936;52.006;4.350;2023-02-18T04:37:44;19.83;;;8.47;;
24859;SDS011;12936;52.006;4.350;2023-02-18T04:40:15;10.47;;;6.13;;
24859;SDS011;12936;52.006;4.350;2023-02-18T04:42:45;16.23;;;8.13;;
24859;SDS011;12936;52.006;4.350;2023-02-18T04:45:35;22.17;;;9.17;;
24859;SDS011;12936;52.006;4.350;2023-02-18T04:48:03;15.37;;;7.80;;
24859;SDS011;12936;52.006;4.350;2023-02-18T04:50:32;21.47;;;9.30;;
24859;SDS011;12936;52.006;4.350;2023-02-18T04:53:01;18.00;;;8.23;;
24859;SDS011;12936;52.006;4.350;2023-02-18T04:55:32;18.83;;;8.10;;
24859;SDS011;12936;52.006;4.350;2023-02-18T04:58:00;15.97;;;7.97;;
24859;SDS011;12936;52.006;4.350;2023-02-18T05:00:29;18.47;;;7.70;;
24859;SDS011;12936;52.006;4.350;2023-02-18T05:02:59;20.27;;;8.03;;
24859;SDS011;12936;52.006;4.350;2023-02-18T05:05:27;16.13;;;7.27;;
24859;SDS011;12936;52.006;4.350;2023-02-18T05:07:58;15.57;;;7.80;;
24859;SDS011;12936;52.006;4.350;2023-02-18T05:10:27;13.23;;;6.87;;
24859;SDS011;12936;52.006;4.350;2023-02-18T05:12:55;19.43;;;6.47;;
24859;SDS011;12936;52.006;4.350;2023-02-18T05:15:24;16.27;;;6.53;;
24859;SDS011;12936;52.006;4.350;2023-02-18T05:17:54;13.47;;;6.90;;
24859;SDS011;12936;52.006;4.350;2023-02-18T05:20:26;15.50;;;6.80;;
24859;SDS011;12936;52.006;4.350;2023-02-18T05:22:58;12.73;;;6.17;;
24859;SDS011;12936;52.006;4.350;2023-02-18T05:25:46;11.63;;;6.27;;
24859;SDS011;12936;52.006;4.350;2023-02-18T05:28:14;15.97;;;7.77;;
24859;SDS011;12936;52.006;4.350;2023-02-18T05:30:42;13.27;;;7.57;;
24859;SDS011;12936;52.006;4.350;2023-02-18T05:33:11;16.20;;;8.17;;
24859;SDS011;12936;52.006;4.350;2023-02-18T05:35:43;13.07;;;6.23;;
24859;SDS011;12936;52.006;4.350;2023-02-18T05:38:13;16.07;;;8.03;;
24859;SDS011;12936;52.006;4.350;2023-02-18T05:40:41;16.33;;;7.77;;
24859;SDS011;12936;52.006;4.350;2023-02-18T05:43:09;18.77;;;9.70;;
24859;SDS011;12936;52.006;4.350;2023-02-18T05:45:38;22.57;;;8.77;;
24859;SDS011;12936;52.006;4.350;2023-02-18T05:48:08;18.90;;;9.67;;
24859;SDS011;12936;52.006;4.350;2023-02-18T05:50:37;18.80;;;9.53;;
24859;SDS011;12936;52.006;4.350;2023-02-18T05:53:07;21.40;;;8.60;;
24859;SDS011;12936;52.006;4.350;2023-02-18T05:55:37;24.30;;;10.00;;
24859;SDS011;12936;52.006;4.350;2023-02-18T05:58:05;26.57;;;9.27;;
24859;SDS011;12936;52.006;4.350;2023-02-18T06:00:33;21.03;;;6.73;;
24859;SDS011;12936;52.006;4.350;2023-02-18T06:03:01;25.37;;;8.47;;
24859;SDS011;12936;52.006;4.350;2023-02-18T06:05:29;27.63;;;9.43;;
24859;SDS011;12936;52.006;4.350;2023-02-18T06:07:57;20.10;;;7.67;;
24859;SDS011;12936;52.006;4.350;2023-02-18T06:10:27;28.47;;;6.97;;
24859;SDS011;12936;52.006;4.350;2023-02-18T06:12:55;27.07;;;7.60;;
24859;SDS011;12936;52.006;4.350;2023-02-18T06:15:23;30.97;;;8.50;;
24859;SDS011;12936;52.006;4.350;2023-02-18T06:17:51;26.27;;;7.10;;
24859;SDS011;12936;52.006;4.350;2023-02-18T06:20:19;22.00;;;6.53;;
24859;SDS011;12936;52.006;4.350;2023-02-18T06:22:47;22.93;;;6.20;;
24859;SDS011;12936;52.006;4.350;2023-02-18T06:25:15;24.17;;;6.27;;
24859;SDS011;12936;52.006;4.350;2023-02-18T06:27:45;24.53;;;6.77;;
24859;SDS011;12936;52.006;4.350;2023-02-18T06:30:13;26.73;;;6.10;;
24859;SDS011;12936;52.006;4.350;2023-02-18T06:32:41;28.53;;;6.50;;
24859;SDS011;12936;52.006;4.350;2023-02-18T06:35:09;14.07;;;3.57;;
24859;SDS011;12936;52.006;4.350;2023-02-18T06:37:37;31.77;;;5.60;;
24859;SDS011;12936;52.006;4.350;2023-02-18T06:40:05;33.67;;;6.33;;
24859;SDS011;12936;52.006;4.350;2023-02-18T06:42:34;32.83;;;5.73;;
24859;SDS011;12936;52.006;4.350;2023-02-18T06:45:04;27.37;;;5.60;;
24859;SDS011;12936;52.006;4.350;2023-02-18T06:47:33;26.53;;;5.20;;
24859;SDS011;12936;52.006;4.350;2023-02-18T06:50:01;17.57;;;3.70;;
24859;SDS011;12936;52.006;4.350;2023-02-18T06:52:30;30.33;;;5.33;;
24859;SDS011;12936;52.006;4.350;2023-02-18T06:54:59;17.77;;;3.33;;
24859;SDS011;12936;52.006;4.350;2023-02-18T06:57:28;22.00;;;3.00;;
24859;SDS011;12936;52.006;4.350;2023-02-18T06:59:56;33.80;;;4.40;;
24859;SDS011;12936;52.006;4.350;2023-02-18T07:02:25;26.30;;;4.33;;
24859;SDS011;12936;52.006;4.350;2023-02-18T07:04:53;30.63;;;4.53;;
24859;SDS011;12936;52.006;4.350;2023-02-18T07:07:21;32.93;;;4.73;;
24859;SDS011;12936;52.006;4.350;2023-02-18T07:09:50;29.90;;;4.13;;
24859;SDS011;12936;52.006;4.350;2023-02-18T07:12:18;24.93;;;4.13;;
24859;SDS011;12936;52.006;4.350;2023-02-18T07:14:46;24.10;;;3.63;;
24859;SDS011;12936;52.006;4.350;2023-02-18T07:17:14;22.37;;;4.67;;
24859;SDS011;12936;52.006;4.350;2023-02-18T07:19:44;25.20;;;4.23;;
24859;SDS011;12936;52.006;4.350;2023-02-18T07:22:12;27.47;;;3.80;;
24859;SDS011;12936;52.006;4.350;2023-02-18T07:24:40;24.90;;;3.70;;
24859;SDS011;12936;52.006;4.350;2023-02-18T07:27:08;24.10;;;4.27;;
24859;SDS011;12936;52.006;4.350;2023-02-18T07:29:36;27.30;;;3.87;;
24859;SDS011;12936;52.006;4.350;2023-02-18T07:32:04;32.03;;;4.33;;
24859;SDS011;12936;52.006;4.350;2023-02-18T07:34:32;21.37;;;3.47;;
24859;SDS011;12936;52.006;4.350;2023-02-18T07:37:02;38.67;;;5.00;;
24859;SDS011;12936;52.006;4.350;2023-02-18T07:39:34;26.33;;;4.00;;
24859;SDS011;12936;52.006;4.350;2023-02-18T07:42:02;29.67;;;3.93;;
24859;SDS011;12936;52.006;4.350;2023-02-18T07:44:30;26.23;;;4.17;;
24859;SDS011;12936;52.006;4.350;2023-02-18T07:46:58;28.27;;;4.10;;
24859;SDS011;12936;52.006;4.350;2023-02-18T07:49:27;31.90;;;4.47;;
24859;SDS011;12936;52.006;4.350;2023-02-18T07:51:55;22.97;;;4.73;;
24859;SDS011;12936;52.006;4.350;2023-02-18T07:54:25;37.13;;;4.37;;
24859;SDS011;12936;52.006;4.350;2023-02-18T07:56:53;25.97;;;3.87;;
24859;SDS011;12936;52.006;4.350;2023-02-18T07:59:21;31.73;;;4.90;;
24859;SDS011;12936;52.006;4.350;2023-02-18T08:01:49;29.67;;;4.03;;
24859;SDS011;12936;52.006;4.350;2023-02-18T08:04:17;22.00;;;3.27;;
24859;SDS011;12936;52.006;4.350;2023-02-18T08:06:46;27.40;;;3.27;;
24859;SDS011;12936;52.006;4.350;2023-02-18T08:09:16;18.80;;;4.00;;
24859;SDS011;12936;52.006;4.350;2023-02-18T08:11:45;25.53;;;3.67;;
24859;SDS011;12936;52.006;4.350;2023-02-18T08:14:13;32.43;;;4.10;;
24859;SDS011;12936;52.006;4.350;2023-02-18T08:16:41;27.77;;;4.20;;
24859;SDS011;12936;52.006;4.350;2023-02-18T08:19:10;27.33;;;4.87;;
24859;SDS011;12936;52.006;4.350;2023-02-18T08:21:38;27.43;;;4.40;;
24859;SDS011;12936;52.006;4.350;2023-02-18T08:24:06;26.43;;;4.03;;
24859;SDS011;12936;52.006;4.350;2023-02-18T08:26:34;26.07;;;4.33;;
24859;SDS011;12936;52.006;4.350;2023-02-18T08:29:04;25.57;;;4.07;;
24859;SDS011;12936;52.006;4.350;2023-02-18T08:31:32;18.10;;;2.50;;
24859;SDS011;12936;52.006;4.350;2023-02-18T08:34:00;23.27;;;3.27;;
24859;SDS011;12936;52.006;4.350;2023-02-18T08:36:30;20.93;;;3.70;;
24859;SDS011;12936;52.006;4.350;2023-02-18T08:38:58;27.07;;;4.30;;
24859;SDS011;12936;52.006;4.350;2023-02-18T08:41:29;33.37;;;3.37;;
24859;SDS011;12936;52.006;4.350;2023-02-18T08:43:57;22.17;;;3.80;;
24859;SDS011;12936;52.006;4.350;2023-02-18T08:46:29;31.77;;;4.20;;
24859;SDS011;12936;52.006;4.350;2023-02-18T08:49:01;24.30;;;3.87;;
24859;SDS011;12936;52.006;4.350;2023-02-18T08:51:30;28.33;;;4.87;;
24859;SDS011;12936;52.006;4.350;2023-02-18T08:53:58;25.23;;;4.00;;
24859;SDS011;12936;52.006;4.350;2023-02-18T08:56:27;28.73;;;4.50;;
24859;SDS011;12936;52.006;4.350;2023-02-18T08:58:55;20.37;;;3.60;;
24859;SDS011;12936;52.006;4.350;2023-02-18T09:01:23;14.30;;;3.27;;
24859;SDS011;12936;52.006;4.350;2023-02-18T09:03:52;25.73;;;3.73;;
24859;SDS011;12936;52.006;4.350;2023-02-18T09:06:21;26.17;;;4.47;;
24859;SDS011;12936;52.006;4.350;2023-02-18T09:08:49;24.27;;;3.37;;
24859;SDS011;12936;52.006;4.350;2023-02-18T09:11:17;36.60;;;4.70;;
24859;SDS011;12936;52.006;4.350;2023-02-18T09:13:46;38.17;;;5.07;;
24859;SDS011;12936;52.006;4.350;2023-02-18T09:16:15;24.17;;;4.07;;
24859;SDS011;12936;52.006;4.350;2023-02-18T09:18:44;25.63;;;3.70;;
24859;SDS011;12936;52.006;4.350;2023-02-18T09:21:15;18.77;;;3.90;;
24859;SDS011;12936;52.006;4.350;2023-02-18T09:23:46;24.17;;;4.60;;
24859;SDS011;12936;52.006;4.350;2023-02-18T09:26:16;22.80;;;3.70;;
24859;SDS011;12936;52.006;4.350;2023-02-18T09:28:46;25.30;;;3.43;;
24859;SDS011;12936;52.006;4.350;2023-02-18T09:31:16;30.80;;;3.67;;
24859;SDS011;12936;52.006;4.350;2023-02-18T09:33:47;26.93;;;4.33;;
24859;SDS011;12936;52.006;4.350;2023-02-18T09:36:18;21.80;;;3.47;;
24859;SDS011;12936;52.006;4.350;2023-02-18T09:38:46;20.23;;;3.43;;
24859;SDS011;12936;52.006;4.350;2023-02-18T09:41:17;24.93;;;3.27;;
24859;SDS011;12936;52.006;4.350;2023-02-18T09:43:53;25.47;;;3.93;;
24859;SDS011;12936;52.006;4.350;2023-02-18T09:46:26;25.80;;;3.87;;
24859;SDS011;12936;52.006;4.350;2023-02-18T09:48:59;29.17;;;4.37;;
24859;SDS011;12936;52.006;4.350;2023-02-18T09:51:30;28.23;;;3.90;;
24859;SDS011;12936;52.006;4.350;2023-02-18T09:53:59;21.10;;;4.50;;
24859;SDS011;12936;52.006;4.350;2023-02-18T09:56:28;23.97;;;4.03;;
24859;SDS011;12936;52.006;4.350;2023-02-18T09:59:02;29.10;;;4.17;;
24859;SDS011;12936;52.006;4.350;2023-02-18T10:01:33;16.00;;;3.13;;
24859;SDS011;12936;52.006;4.350;2023-02-18T10:04:04;23.10;;;3.83;;
24859;SDS011;12936;52.006;4.350;2023-02-18T10:06:40;35.13;;;4.40;;
24859;SDS011;12936;52.006;4.350;2023-02-18T10:09:14;21.93;;;2.97;;
24859;SDS011;12936;52.006;4.350;2023-02-18T10:11:47;32.37;;;3.93;;
24859;SDS011;12936;52.006;4.350;2023-02-18T10:14:17;23.80;;;4.17;;
24859;SDS011;12936;52.006;4.350;2023-02-18T10:16:46;18.00;;;2.53;;
24859;SDS011;12936;52.006;4.350;2023-02-18T10:19:21;22.50;;;3.53;;
24859;SDS011;12936;52.006;4.350;2023-02-18T10:21:53;30.37;;;4.13;;
24859;SDS011;12936;52.006;4.350;2023-02-18T10:24:25;26.43;;;3.53;;
24859;SDS011;12936;52.006;4.350;2023-02-18T10:26:55;27.50;;;3.67;;
24859;SDS011;12936;52.006;4.350;2023-02-18T10:29:25;12.23;;;2.70;;
24859;SDS011;12936;52.006;4.350;2023-02-18T10:31:55;22.23;;;3.63;;
24859;SDS011;12936;52.006;4.350;2023-02-18T10:34:29;21.33;;;3.03;;
24859;SDS011;12936;52.006;4.350;2023-02-18T10:37:10;18.17;;;3.33;;
24859;SDS011;12936;52.006;4.350;2023-02-18T10:39:57;23.27;;;3.63;;
24859;SDS011;12936;52.006;4.350;2023-02-18T10:42:35;27.93;;;4.37;;
24859;SDS011;12936;52.006;4.350;2023-02-18T10:45:14;14.30;;;3.13;;
24859;SDS011;12936;52.006;4.350;2023-02-18T10:47:53;16.03;;;3.23;;
24859;SDS011;12936;52.006;4.350;2023-02-18T10:50:33;20.70;;;3.30;;
24859;SDS011;12936;52.006;4.350;2023-02-18T10:53:10;23.03;;;3.70;;
24859;SDS011;12936;52.006;4.350;2023-02-18T10:55:41;20.90;;;2.80;;
24859;SDS011;12936;52.006;4.350;2023-02-18T10:58:22;23.33;;;3.50;;
24859;SDS011;12936;52.006;4.350;2023-02-18T11:00:53;24.67;;;4.13;;
24859;SDS011;12936;52.006;4.350;2023-02-18T11:03:22;21.73;;;3.97;;
24859;SDS011;12936;52.006;4.350;2023-02-18T11:05:54;13.90;;;3.00;;
24859;SDS011;12936;52.006;4.350;2023-02-18T11:08:25;20.80;;;3.57;;
24859;SDS011;12936;52.006;4.350;2023-02-18T11:10:54;22.10;;;3.07;;
24859;SDS011;12936;52.006;4.350;2023-02-18T11:13:24;23.43;;;2.83;;
24859;SDS011;12936;52.006;4.350;2023-02-18T11:15:54;23.37;;;3.17;;
24859;SDS011;12936;52.006;4.350;2023-02-18T11:18:29;19.53;;;2.93;;
24859;SDS011;12936;52.006;4.350;2023-02-18T11:21:05;16.27;;;3.00;;
24859;SDS011;12936;52.006;4.350;2023-02-18T11:23:49;22.83;;;3.20;;
24859;SDS011;12936;52.006;4.350;2023-02-18T11:26:21;20.73;;;3.03;;
24859;SDS011;12936;52.006;4.350;2023-02-18T11:28:56;17.80;;;3.67;;
24859;SDS011;12936;52.006;4.350;2023-02-18T11:31:33;22.10;;;3.20;;
24859;SDS011;12936;52.006;4.350;2023-02-18T11:34:12;17.97;;;3.40;;
24859;SDS011;12936;52.006;4.350;2023-02-18T11:36:43;20.27;;;2.63;;
24859;SDS011;12936;52.006;4.350;2023-02-18T11:39:16;17.60;;;3.27;;
24859;SDS011;12936;52.006;4.350;2023-02-18T11:41:52;25.30;;;3.47;;
24859;SDS011;12936;52.006;4.350;2023-02-18T11:44:22;16.00;;;3.40;;
24859;SDS011;12936;52.006;4.350;2023-02-18T11:46:56;18.43;;;3.67;;
24859;SDS011;12936;52.006;4.350;2023-02-18T11:49:26;23.23;;;3.53;;
24859;SDS011;12936;52.006;4.350;2023-02-18T11:52:02;15.47;;;3.07;;
24859;SDS011;12936;52.006;4.350;2023-02-18T11:54:33;25.37;;;3.00;;
24859;SDS011;12936;52.006;4.350;2023-02-18T11:57:02;26.43;;;4.13;;
24859;SDS011;12936;52.006;4.350;2023-02-18T11:59:32;17.03;;;2.80;;
24859;SDS011;12936;52.006;4.350;2023-02-18T12:02:05;19.20;;;2.47;;
24859;SDS011;12936;52.006;4.350;2023-02-18T12:04:55;19.67;;;3.10;;
24859;SDS011;12936;52.006;4.350;2023-02-18T12:07:29;21.70;;;3.17;;
24859;SDS011;12936;52.006;4.350;2023-02-18T12:10:11;17.67;;;2.60;;
24859;SDS011;12936;52.006;4.350;2023-02-18T12:12:43;18.30;;;2.73;;
24859;SDS011;12936;52.006;4.350;2023-02-18T12:15:15;18.27;;;3.17;;
24859;SDS011;12936;52.006;4.350;2023-02-18T12:17:51;13.97;;;2.83;;
24859;SDS011;12936;52.006;4.350;2023-02-18T12:20:35;16.00;;;2.83;;
24859;SDS011;12936;52.006;4.350;2023-02-18T12:23:17;18.73;;;3.10;;
24859;SDS011;12936;52.006;4.350;2023-02-18T12:25:53;22.40;;;3.37;;
24859;SDS011;12936;52.006;4.350;2023-02-18T12:28:32;14.83;;;2.70;;
24859;SDS011;12936;52.006;4.350;2023-02-18T12:31:20;18.03;;;2.60;;
24859;SDS011;12936;52.006;4.350;2023-02-18T12:34:11;18.53;;;3.00;;
24859;SDS011;12936;52.006;4.350;2023-02-18T12:36:52;14.80;;;2.87;;
24859;SDS011;12936;52.006;4.350;2023-02-18T12:39:32;15.60;;;3.23;;
24859;SDS011;12936;52.006;4.350;2023-02-18T12:42:15;17.97;;;3.13;;
24859;SDS011;12936;52.006;4.350;2023-02-18T12:44:56;15.80;;;2.63;;
24859;SDS011;12936;52.006;4.350;2023-02-18T12:47:37;16.73;;;3.00;;
24859;SDS011;12936;52.006;4.350;2023-02-18T12:53:16;20.27;;;3.13;;
24859;SDS011;12936;52.006;4.350;2023-02-18T12:56:10;23.30;;;3.93;;
24859;SDS011;12936;52.006;4.350;2023-02-18T12:59:10;16.23;;;2.87;;
24859;SDS011;12936;52.006;4.350;2023-02-18T13:01:48;20.83;;;3.03;;
24859;SDS011;12936;52.006;4.350;2023-02-18T13:04:24;16.80;;;2.93;;
24859;SDS011;12936;52.006;4.350;2023-02-18T13:13:19;16.30;;;2.33;;
24859;SDS011;12936;52.006;4.350;2023-02-18T13:15:50;9.77;;;2.40;;
24859;SDS011;12936;52.006;4.350;2023-02-18T13:18:24;16.23;;;2.37;;
24859;SDS011;12936;52.006;4.350;2023-02-18T13:20:57;9.33;;;2.37;;
24859;SDS011;12936;52.006;4.350;2023-02-18T13:23:31;13.40;;;2.73;;
24859;SDS011;12936;52.006;4.350;2023-02-18T13:26:03;16.90;;;2.07;;
24859;SDS011;12936;52.006;4.350;2023-02-18T13:28:37;10.97;;;1.80;;
24859;SDS011;12936;52.006;4.350;2023-02-18T13:31:18;10.77;;;1.90;;
24859;SDS011;12936;52.006;4.350;2023-02-18T13:33:56;15.40;;;2.37;;
24859;SDS011;12936;52.006;4.350;2023-02-18T13:36:35;13.30;;;2.47;;
24859;SDS011;12936;52.006;4.350;2023-02-18T13:39:14;17.07;;;2.87;;
24859;SDS011;12936;52.006;4.350;2023-02-18T13:41:46;10.30;;;2.40;;
24859;SDS011;12936;52.006;4.350;2023-02-18T13:47:35;13.37;;;2.30;;
24859;SDS011;12936;52.006;4.350;2023-02-18T13:50:28;14.50;;;2.50;;
24859;SDS011;12936;52.006;4.350;2023-02-18T13:53:19;10.67;;;2.33;;
24859;SDS011;12936;52.006;4.350;2023-02-18T13:58:36;15.63;;;2.60;;
24859;SDS011;12936;52.006;4.350;2023-02-18T14:01:12;15.37;;;2.40;;
24859;SDS011;12936;52.006;4.350;2023-02-18T14:03:51;12.43;;;2.30;;
24859;SDS011;12936;52.006;4.350;2023-02-18T14:06:23;13.27;;;2.47;;
24859;SDS011;12936;52.006;4.350;2023-02-18T14:09:02;14.10;;;2.57;;
24859;SDS011;12936;52.006;4.350;2023-02-18T14:11:53;18.23;;;3.03;;
24859;SDS011;12936;52.006;4.350;2023-02-18T14:14:33;15.07;;;2.63;;
24859;SDS011;12936;52.006;4.350;2023-02-18T14:17:24;23.23;;;3.30;;
24859;SDS011;12936;52.006;4.350;2023-02-18T14:26:28;11.10;;;2.20;;
24859;SDS011;12936;52.006;4.350;2023-02-18T14:29:09;17.33;;;2.97;;
24859;SDS011;12936;52.006;4.350;2023-02-18T14:31:53;21.20;;;3.87;;
24859;SDS011;12936;52.006;4.350;2023-02-18T14:34:44;24.43;;;4.23;;
24859;SDS011;12936;52.006;4.350;2023-02-18T14:37:41;18.27;;;3.93;;
24859;SDS011;12936;52.006;4.350;2023-02-18T14:40:40;19.63;;;3.47;;
24859;SDS011;12936;52.006;4.350;2023-02-18T14:43:32;20.90;;;3.80;;
24859;SDS011;12936;52.006;4.350;2023-02-18T14:46:23;20.93;;;3.57;;
24859;SDS011;12936;52.006;4.350;2023-02-18T14:52:03;21.97;;;3.80;;
24859;SDS011;12936;52.006;4.350;2023-02-18T14:54:34;23.97;;;3.47;;
24859;SDS011;12936;52.006;4.350;2023-02-18T14:57:04;25.23;;;3.67;;
24859;SDS011;12936;52.006;4.350;2023-02-18T14:59:36;20.37;;;3.70;;
24859;SDS011;12936;52.006;4.350;2023-02-18T15:02:14;20.73;;;4.10;;
24859;SDS011;12936;52.006;4.350;2023-02-18T15:04:45;18.10;;;3.10;;
24859;SDS011;12936;52.006;4.350;2023-02-18T15:07:13;17.63;;;2.80;;
24859;SDS011;12936;52.006;4.350;2023-02-18T15:09:47;28.80;;;4.13;;
24859;SDS011;12936;52.006;4.350;2023-02-18T15:12:19;22.60;;;3.83;;
24859;SDS011;12936;52.006;4.350;2023-02-18T15:14:51;31.20;;;3.53;;
24859;SDS011;12936;52.006;4.350;2023-02-18T15:17:22;23.93;;;3.63;;
24859;SDS011;12936;52.006;4.350;2023-02-18T15:19:54;24.50;;;3.77;;
24859;SDS011;12936;52.006;4.350;2023-02-18T15:22:24;27.83;;;3.87;;
24859;SDS011;12936;52.006;4.350;2023-02-18T15:24:54;29.93;;;4.07;;
24859;SDS011;12936;52.006;4.350;2023-02-18T15:27:23;21.07;;;3.77;;
24859;SDS011;12936;52.006;4.350;2023-02-18T15:29:55;27.57;;;3.20;;
24859;SDS011;12936;52.006;4.350;2023-02-18T15:32:25;22.93;;;5.43;;
24859;SDS011;12936;52.006;4.350;2023-02-18T15:34:55;30.37;;;5.23;;
24859;SDS011;12936;52.006;4.350;2023-02-18T15:37:27;18.93;;;3.80;;